Time;durP1;ratioP1;P1;durP2;ratioP2;P2;SDS_P1;SDS_P2;PMS_P1;PMS_P2;Temp;Humidity;BMP_temperature;BMP_pressure;BME280_temperature;BME280_humidity;BME280_pressure;Samples;Min_cycle;Max_cycle;Signal;HPM_P1;HPM_P2
2023/01/22 00:00:05;;;;;;;8.75;4.32;;;1.00;92.60;;;;;;5024439;28;20033;-69
2023/01/22 00:02:34;;;;;;;7.95;5.07;;;1.00;92.40;;;;;;5026702;28;20376;-70
2023/01/22 00:04:59;;;;;;;8.45;5.00;;;1.10;92.40;;;;;;5019189;28;20056;-68
2023/01/22 00:07:25;;;;;;;10.88;5.20;;;1.00;92.60;;;;;;5022007;28;20045;-68
2023/01/22 00:09:50;;;;;;;8.60;4.38;;;1.00;92.50;;;;;;5025704;28;20037;-69
2023/01/22 00:12:16;;;;;;;7.40;4.45;;;1.00;92.50;;;;;;5020958;28;20042;-69
2023/01/22 00:14:42;;;;;;;8.10;4.95;;;1.10;92.50;;;;;;5024107;28;20398;-69
2023/01/22 00:17:07;;;;;;;7.30;4.60;;;1.10;92.30;;;;;;5028547;28;20061;-70
2023/01/22 00:19:33;;;;;;;9.88;4.60;;;1.10;92.30;;;;;;5030977;28;20041;-71
2023/01/22 00:21:58;;;;;;;7.47;4.60;;;1.10;92.30;;;;;;5022902;28;20385;-70
2023/01/22 00:24:24;;;;;;;9.32;4.82;;;1.10;92.30;;;;;;5024809;28;20053;-71
2023/01/22 00:26:49;;;;;;;6.70;4.47;;;1.00;92.30;;;;;;5031142;28;20057;-69
2023/01/22 00:29:15;;;;;;;9.10;4.85;;;1.00;92.40;;;;;;5034494;28;20068;-69
2023/01/22 00:31:41;;;;;;;7.80;4.85;;;1.10;92.40;;;;;;5032658;28;20084;-70
2023/01/22 00:34:07;;;;;;;7.10;4.90;;;1.00;92.40;;;;;;5029709;28;20041;-68
2023/01/22 00:36:33;;;;;;;9.32;4.72;;;1.00;92.40;;;;;;5024607;28;20453;-69
2023/01/22 00:39:00;;;;;;;8.00;4.35;;;1.00;92.50;;;;;;5030708;28;20040;-69
2023/01/22 00:41:26;;;;;;;7.95;4.30;;;1.00;92.50;;;;;;5026278;28;20071;-69
2023/01/22 00:43:51;;;;;;;6.65;4.20;;;1.00;92.30;;;;;;5031763;28;20041;-69
2023/01/22 00:46:17;;;;;;;9.98;5.00;;;1.00;92.30;;;;;;5029154;28;20490;-69
2023/01/22 00:48:48;;;;;;;10.45;4.85;;;1.00;92.20;;;;;;5030866;28;20037;-69
2023/01/22 00:51:14;;;;;;;7.57;4.40;;;1.00;92.20;;;;;;5027709;28;20025;-69
2023/01/22 00:53:40;;;;;;;8.45;4.43;;;1.00;92.10;;;;;;5027913;28;21691;-68
2023/01/22 00:56:06;;;;;;;7.15;4.60;;;1.00;92.20;;;;;;5035567;28;20033;-68
2023/01/22 00:58:32;;;;;;;8.57;4.38;;;0.90;92.30;;;;;;5031393;28;20473;-69
2023/01/22 01:01:00;;;;;;;6.07;3.97;;;0.90;92.20;;;;;;5023415;28;20213;-70
2023/01/22 01:03:26;;;;;;;8.77;4.30;;;1.00;92.10;;;;;;5026215;28;20029;-69
2023/01/22 01:06:02;;;;;;;7.20;4.07;;;0.90;91.90;;;;;;5033080;28;20044;-68
2023/01/22 01:08:30;;;;;;;8.40;4.47;;;0.90;92.10;;;;;;5024218;28;20076;-72
2023/01/22 01:10:58;;;;;;;9.52;4.70;;;1.00;92.10;;;;;;5022813;28;20018;-69
2023/01/22 01:13:24;;;;;;;7.70;3.97;;;1.00;92.10;;;;;;5035566;28;20045;-69
2023/01/22 01:15:57;;;;;;;9.50;4.40;;;1.00;92.10;;;;;;5026366;28;20029;-69
2023/01/22 01:18:22;;;;;;;6.60;4.13;;;1.00;92.00;;;;;;5032029;28;20033;-69
2023/01/22 01:20:55;;;;;;;8.35;4.50;;;1.00;92.00;;;;;;5030350;28;20041;-69
2023/01/22 01:23:22;;;;;;;8.15;3.95;;;1.00;92.10;;;;;;5032622;28;20393;-69
2023/01/22 01:25:48;;;;;;;8.15;4.22;;;1.00;92.10;;;;;;5032120;28;20038;-68
2023/01/22 01:28:13;;;;;;;6.40;3.58;;;1.00;92.10;;;;;;5029329;28;20485;-70
2023/01/22 01:30:39;;;;;;;6.68;3.83;;;1.00;92.10;;;;;;5039998;28;20481;-69
2023/01/22 01:33:04;;;;;;;6.28;3.95;;;1.00;91.90;;;;;;5031223;28;20401;-69
2023/01/22 01:35:30;;;;;;;6.22;3.72;;;1.00;92.00;;;;;;5030522;28;20037;-68
2023/01/22 01:37:55;;;;;;;8.38;4.45;;;1.00;92.10;;;;;;5029686;28;20449;-68
2023/01/22 01:40:21;;;;;;;7.30;4.40;;;1.00;92.20;;;;;;5030591;28;20033;-69
2023/01/22 01:42:46;;;;;;;8.27;4.00;;;0.90;92.00;;;;;;5024422;28;20028;-68
2023/01/22 01:45:32;;;;;;;7.18;3.90;;;1.00;91.90;;;;;;5023042;28;20471;-69
2023/01/22 01:48:10;;;;;;;8.43;3.70;;;1.00;92.20;;;;;;5024649;28;20559;-69
2023/01/22 01:50:39;;;;;;;9.75;4.32;;;1.00;92.20;;;;;;5027767;28;20188;-71
2023/01/22 01:53:05;;;;;;;8.52;3.92;;;0.90;91.90;;;;;;5028076;28;20064;-69
2023/01/22 01:55:33;;;;;;;8.55;3.95;;;0.90;92.00;;;;;;5030336;28;20459;-70
2023/01/22 01:58:06;;;;;;;7.75;4.10;;;0.90;92.20;;;;;;5030977;28;20037;-69
2023/01/22 02:00:34;;;;;;;7.28;3.83;;;0.90;92.00;;;;;;5023661;28;20033;-69
2023/01/22 02:03:00;;;;;;;7.88;4.05;;;0.90;92.20;;;;;;5027015;28;20403;-68
2023/01/22 02:05:31;;;;;;;7.63;4.57;;;0.90;92.20;;;;;;5031086;28;20083;-69
2023/01/22 02:07:56;;;;;;;9.23;4.82;;;1.00;92.20;;;;;;5029421;28;20033;-70
2023/01/22 02:10:22;;;;;;;6.93;4.05;;;0.90;91.90;;;;;;5028972;28;20499;-69
2023/01/22 02:12:47;;;;;;;7.50;4.35;;;0.90;92.00;;;;;;5031407;28;20033;-68
2023/01/22 02:15:13;;;;;;;8.07;4.78;;;0.90;92.20;;;;;;5021210;28;20532;-70
2023/01/22 02:17:39;;;;;;;8.93;4.47;;;1.00;92.40;;;;;;5038519;28;20101;-68
2023/01/22 02:20:05;;;;;;;8.88;4.47;;;0.90;92.40;;;;;;5017871;28;20037;-68
2023/01/22 02:22:34;;;;;;;7.28;4.22;;;0.90;92.50;;;;;;5038045;28;20099;-68
2023/01/22 02:25:00;;;;;;;8.30;4.65;;;0.90;92.40;;;;;;5031533;28;20068;-69
2023/01/22 02:27:26;;;;;;;7.55;5.03;;;0.90;92.50;;;;;;5027606;28;20441;-69
2023/01/22 02:29:51;;;;;;;8.38;4.50;;;0.90;92.50;;;;;;5044309;28;20397;-69
2023/01/22 02:32:17;;;;;;;6.97;4.53;;;0.90;92.60;;;;;;5031315;28;20116;-70
2023/01/22 02:34:42;;;;;;;7.55;4.70;;;0.90;92.60;;;;;;5028881;28;20033;-68
2023/01/22 02:37:08;;;;;;;7.03;4.07;;;0.90;92.70;;;;;;5032348;28;20040;-69
2023/01/22 02:39:34;;;;;;;9.20;4.80;;;0.90;92.80;;;;;;5029977;28;20031;-71
2023/01/22 02:42:00;;;;;;;8.80;4.70;;;0.90;92.70;;;;;;5026869;28;20029;-69
2023/01/22 02:44:25;;;;;;;6.88;4.22;;;0.90;92.80;;;;;;5028357;28;20040;-69
2023/01/22 02:46:51;;;;;;;8.10;4.75;;;0.90;92.80;;;;;;5022710;28;20060;-72
2023/01/22 02:49:16;;;;;;;9.15;4.75;;;0.90;92.90;;;;;;5019281;28;20062;-72
2023/01/22 02:51:42;;;;;;;9.77;4.38;;;0.90;92.80;;;;;;5020699;28;20095;-71
2023/01/22 02:54:07;;;;;;;9.07;4.82;;;0.90;93.00;;;;;;5024744;28;20040;-69
2023/01/22 02:56:33;;;;;;;9.48;4.53;;;0.90;93.10;;;;;;5029919;28;20536;-70
2023/01/22 02:58:59;;;;;;;12.40;5.00;;;1.00;93.20;;;;;;5019853;28;20038;-72
2023/01/22 03:01:25;;;;;;;9.02;5.30;;;1.00;93.10;;;;;;5027386;28;20032;-70
2023/01/22 03:04:11;;;;;;;6.93;4.25;;;1.00;92.70;;;;;;5028563;28;20398;-72
2023/01/22 03:06:39;;;;;;;9.55;4.15;;;1.00;92.90;;;;;;5025361;28;20040;-68
2023/01/22 03:09:05;;;;;;;11.88;4.88;;;0.90;92.80;;;;;;5026462;28;20043;-68
2023/01/22 03:11:32;;;;;;;11.23;5.30;;;1.00;92.90;;;;;;5028629;28;20108;-69
2023/01/22 03:22:14;;;;;;;8.07;4.57;;;1.00;93.00;;;;;;5016143;28;20390;-68
2023/01/22 03:24:40;;;;;;;10.63;5.28;;;1.00;93.10;;;;;;5035352;28;20171;-69
2023/01/22 03:27:05;;;;;;;8.75;4.88;;;1.00;93.10;;;;;;5028948;28;20116;-69
2023/01/22 03:29:37;;;;;;;8.43;4.80;;;0.90;93.10;;;;;;5044787;28;20056;-68
2023/01/22 03:32:03;;;;;;;8.90;4.88;;;1.00;93.20;;;;;;5031805;28;20025;-68
2023/01/22 03:34:28;;;;;;;9.75;4.78;;;0.90;93.10;;;;;;5026626;28;20053;-68
2023/01/22 03:36:54;;;;;;;7.85;4.80;;;0.90;93.20;;;;;;5037488;28;20026;-68
2023/01/22 03:39:19;;;;;;;8.85;4.60;;;1.00;93.30;;;;;;5030403;28;20033;-68
2023/01/22 03:41:45;;;;;;;10.38;4.95;;;1.00;93.30;;;;;;5024748;28;20121;-71
2023/01/22 03:44:13;;;;;;;10.57;5.00;;;1.00;93.30;;;;;;5028193;28;20037;-72
2023/01/22 03:46:41;;;;;;;10.23;4.63;;;0.90;93.20;;;;;;5023188;28;20120;-68
2023/01/22 03:49:07;;;;;;;8.90;4.90;;;1.00;93.20;;;;;;5025321;28;20044;-69
2023/01/22 03:51:34;;;;;;;7.53;4.65;;;1.00;93.30;;;;;;5026005;28;20029;-69
2023/01/22 03:53:59;;;;;;;7.32;4.72;;;1.00;93.30;;;;;;5021801;28;20033;-68
2023/01/22 03:56:26;;;;;;;8.30;4.68;;;1.00;93.30;;;;;;5029233;28;20095;-69
2023/01/22 03:58:52;;;;;;;7.97;4.60;;;1.00;93.40;;;;;;5030710;28;20034;-71
2023/01/22 04:01:20;;;;;;;14.57;5.13;;;1.00;93.40;;;;;;5020728;28;20033;-68
2023/01/22 04:03:46;;;;;;;11.90;4.97;;;1.00;93.40;;;;;;5025478;28;20108;-69
2023/01/22 04:06:12;;;;;;;8.20;4.57;;;1.00;93.30;;;;;;5031955;28;20083;-69
2023/01/22 04:08:40;;;;;;;9.60;4.65;;;1.00;93.40;;;;;;5024340;28;20034;-68
2023/01/22 04:11:06;;;;;;;8.82;4.88;;;1.00;93.40;;;;;;5030627;28;20033;-69
2023/01/22 04:13:32;;;;;;;7.50;4.50;;;1.00;93.50;;;;;;5030231;28;20378;-69
2023/01/22 04:15:58;;;;;;;8.82;4.75;;;1.00;93.40;;;;;;5021886;28;20033;-69
2023/01/22 04:18:24;;;;;;;7.43;4.57;;;1.00;93.50;;;;;;5013973;28;20034;-70
2023/01/22 04:20:51;;;;;;;7.80;4.30;;;1.00;93.40;;;;;;5023599;28;20458;-68
2023/01/22 04:23:17;;;;;;;9.32;5.30;;;1.00;93.40;;;;;;5021289;28;20060;-69
2023/01/22 04:25:43;;;;;;;9.98;4.95;;;1.00;93.50;;;;;;5035242;28;20026;-68
2023/01/22 04:28:09;;;;;;;9.50;4.70;;;1.00;93.60;;;;;;5030417;28;20394;-69
2023/01/22 04:30:36;;;;;;;9.18;4.97;;;1.00;93.50;;;;;;5035595;28;20029;-70
2023/01/22 04:33:01;;;;;;;9.65;5.15;;;1.10;93.60;;;;;;5025093;28;20057;-72
2023/01/22 04:35:28;;;;;;;8.63;4.35;;;1.10;93.60;;;;;;5032002;28;20427;-68
2023/01/22 04:37:53;;;;;;;12.73;4.95;;;1.10;93.70;;;;;;5024066;28;20041;-69
2023/01/22 04:40:19;;;;;;;6.95;4.57;;;1.00;93.60;;;;;;5027216;28;20476;-68
2023/01/22 04:42:45;;;;;;;7.47;4.53;;;1.00;93.60;;;;;;5030272;28;20083;-70
2023/01/22 04:45:11;;;;;;;9.63;5.15;;;1.10;93.70;;;;;;5028066;28;20359;-70
2023/01/22 04:47:42;;;;;;;12.10;4.82;;;1.10;93.80;;;;;;5026682;28;20494;-72
2023/01/22 04:50:10;;;;;;;;;;;1.10;93.70;;;;;;5017159;28;20041;-69
2023/01/22 04:52:36;;;;;;;8.52;3.85;;;1.10;93.70;;;;;;5024765;28;20007;-69
2023/01/22 04:55:01;;;;;;;8.68;4.57;;;1.10;93.70;;;;;;5025471;28;20522;-68
2023/01/22 04:57:27;;;;;;;6.72;4.32;;;1.10;93.60;;;;;;5028058;28;20044;-68
2023/01/22 04:59:52;;;;;;;11.55;5.25;;;1.10;93.50;;;;;;5013625;28;20048;-70
2023/01/22 05:02:19;;;;;;;10.00;4.53;;;1.10;93.70;;;;;;5019390;28;20029;-70
2023/01/22 05:04:45;;;;;;;11.60;4.78;;;1.10;93.80;;;;;;5022241;28;20029;-69
2023/01/22 05:07:10;;;;;;;9.30;4.32;;;1.10;93.80;;;;;;5023877;28;20095;-69
2023/01/22 05:09:36;;;;;;;7.82;4.55;;;1.10;93.70;;;;;;5033765;28;20533;-68
2023/01/22 05:12:01;;;;;;;8.20;4.78;;;1.10;93.80;;;;;;5023046;28;20029;-69
2023/01/22 05:14:27;;;;;;;9.35;4.68;;;1.10;93.90;;;;;;5029230;28;20071;-69
2023/01/22 05:16:52;;;;;;;9.30;4.63;;;1.10;93.80;;;;;;5027105;28;20037;-69
2023/01/22 05:19:17;;;;;;;9.38;5.55;;;1.10;94.00;;;;;;5035836;28;20032;-69
2023/01/22 05:21:44;;;;;;;13.50;5.20;;;1.10;94.00;;;;;;5032586;28;20076;-68
2023/01/22 05:24:10;;;;;;;8.85;4.97;;;1.10;94.10;;;;;;5034766;28;20107;-69
2023/01/22 05:26:36;;;;;;;10.55;5.30;;;1.10;94.00;;;;;;5028373;28;20034;-68
2023/01/22 05:29:01;;;;;;;9.23;4.70;;;1.10;94.10;;;;;;5036998;28;20534;-70
2023/01/22 05:31:27;;;;;;;12.70;5.82;;;1.10;94.00;;;;;;5035216;28;20475;-70
2023/01/22 05:33:52;;;;;;;12.70;5.65;;;1.10;94.10;;;;;;5036589;28;20047;-71
2023/01/22 05:36:18;;;;;;;8.52;4.65;;;1.20;94.10;;;;;;5021385;28;20466;-71
2023/01/22 05:38:44;;;;;;;12.23;4.78;;;1.10;94.10;;;;;;5034034;28;20030;-70
2023/01/22 05:41:10;;;;;;;8.30;4.85;;;1.20;94.20;;;;;;5021337;28;20423;-71
2023/01/22 05:43:37;;;;;;;9.77;5.05;;;1.20;94.10;;;;;;5024886;28;20108;-70
2023/01/22 05:46:03;;;;;;;13.55;5.18;;;1.20;94.10;;;;;;5026503;28;20105;-71
2023/01/22 05:48:39;;;;;;;9.30;4.72;;;1.20;94.00;;;;;;5029955;28;20140;-71
2023/01/22 05:51:06;;;;;;;11.25;5.40;;;1.20;94.10;;;;;;5026492;28;20029;-71
2023/01/22 05:53:33;;;;;;;10.35;4.70;;;1.20;94.10;;;;;;5021907;28;20580;-71
2023/01/22 05:56:01;;;;;;;9.18;5.15;;;1.20;94.10;;;;;;5025172;28;20486;-70
2023/01/22 05:58:27;;;;;;;8.98;4.93;;;1.20;94.10;;;;;;5025583;28;20544;-70
2023/01/22 06:00:53;;;;;;;8.55;4.78;;;1.20;94.20;;;;;;5028225;28;20017;-71
2023/01/22 06:03:18;;;;;;;9.52;4.40;;;1.20;94.10;;;;;;5034976;28;20052;-70
2023/01/22 06:05:44;;;;;;;9.35;4.70;;;1.20;94.10;;;;;;5024142;28;20825;-70
2023/01/22 06:08:09;;;;;;;9.50;4.57;;;1.20;94.10;;;;;;5026632;28;20033;-70
2023/01/22 06:10:35;;;;;;;11.55;5.05;;;1.30;94.20;;;;;;5017364;28;20044;-71
2023/01/22 06:13:01;;;;;;;10.45;4.93;;;1.30;94.10;;;;;;5019629;28;20030;-70
2023/01/22 06:15:26;;;;;;;11.43;4.93;;;1.20;94.20;;;;;;5017148;28;20042;-71
2023/01/22 06:17:52;;;;;;;9.85;4.68;;;1.30;94.20;;;;;;5026323;28;20484;-71
2023/01/22 06:20:17;;;;;;;10.32;4.55;;;1.30;94.20;;;;;;5024001;28;20086;-72
2023/01/22 06:22:43;;;;;;;12.98;5.60;;;1.20;94.30;;;;;;5024856;28;20112;-70
2023/01/22 06:25:08;;;;;;;9.40;5.03;;;1.20;94.20;;;;;;5023601;28;20107;-71
2023/01/22 06:27:34;;;;;;;9.77;4.40;;;1.30;94.30;;;;;;5019786;28;20377;-70
2023/01/22 06:30:00;;;;;;;9.82;4.65;;;1.20;94.20;;;;;;5025468;28;20068;-69
2023/01/22 06:32:25;;;;;;;11.32;5.35;;;1.20;94.30;;;;;;5018571;28;20038;-70
2023/01/22 06:34:51;;;;;;;11.02;4.60;;;1.30;94.30;;;;;;5019622;28;20041;-70
2023/01/22 06:37:16;;;;;;;9.63;4.80;;;1.20;94.30;;;;;;5017576;28;20077;-70
2023/01/22 06:39:42;;;;;;;9.50;4.25;;;1.20;94.20;;;;;;5021840;28;20025;-70
2023/01/22 06:42:07;;;;;;;12.95;5.70;;;1.20;94.20;;;;;;5019859;28;20111;-70
2023/01/22 06:44:33;;;;;;;7.68;3.95;;;1.20;94.30;;;;;;5023474;28;20429;-70
2023/01/22 06:46:58;;;;;;;9.75;4.88;;;1.20;94.30;;;;;;5025319;28;20025;-70
2023/01/22 06:49:24;;;;;;;8.05;4.78;;;1.20;94.30;;;;;;5023435;28;20394;-70
2023/01/22 06:51:49;;;;;;;10.18;4.80;;;1.20;94.40;;;;;;5024907;28;20596;-70
2023/01/22 06:54:15;;;;;;;11.50;4.68;;;1.20;94.40;;;;;;5025850;28;20030;-70
2023/01/22 06:56:43;;;;;;;7.78;4.78;;;1.30;94.40;;;;;;5024338;28;20029;-70
2023/01/22 06:59:09;;;;;;;10.07;4.88;;;1.20;94.40;;;;;;5014850;28;20061;-70
2023/01/22 07:01:34;;;;;;;10.32;5.18;;;1.30;94.30;;;;;;5022099;28;20115;-70
2023/01/22 07:04:00;;;;;;;12.63;4.72;;;1.30;94.40;;;;;;5026364;28;20493;-70
2023/01/22 07:06:25;;;;;;;12.43;5.45;;;1.20;94.30;;;;;;5024938;28;20437;-70
2023/01/22 07:08:51;;;;;;;10.50;4.60;;;1.20;94.30;;;;;;5022504;28;20069;-70
2023/01/22 07:11:16;;;;;;;9.75;5.22;;;1.20;94.30;;;;;;5027288;28;20034;-70
2023/01/22 07:13:42;;;;;;;11.02;4.68;;;1.20;94.40;;;;;;5024833;28;20042;-71
2023/01/22 07:16:08;;;;;;;7.95;4.65;;;1.30;94.40;;;;;;5021908;28;20478;-70
2023/01/22 07:18:33;;;;;;;9.85;4.43;;;1.20;94.30;;;;;;5015369;28;20037;-70
2023/01/22 07:21:00;;;;;;;12.75;5.20;;;1.30;94.40;;;;;;5014661;28;20503;-70
2023/01/22 07:23:26;;;;;;;8.95;5.07;;;1.20;94.30;;;;;;5022343;28;20049;-70
2023/01/22 07:25:51;;;;;;;13.15;4.97;;;1.30;94.50;;;;;;5028713;28;20040;-70
2023/01/22 07:28:17;;;;;;;12.93;4.95;;;1.30;94.50;;;;;;5020523;28;20037;-70
2023/01/22 07:30:45;;;;;;;8.32;4.43;;;1.30;94.40;;;;;;5017866;28;20056;-70
2023/01/22 07:33:10;;;;;;;10.20;5.00;;;1.30;94.40;;;;;;5027425;28;20033;-70
2023/01/22 07:35:36;;;;;;;10.90;4.95;;;1.40;94.40;;;;;;5010298;28;20100;-70
2023/01/22 07:38:01;;;;;;;10.75;5.15;;;1.40;94.40;;;;;;5025614;28;20398;-71
2023/01/22 07:40:27;;;;;;;10.13;5.50;;;1.40;94.40;;;;;;5016927;28;20092;-70
2023/01/22 07:42:54;;;;;;;8.88;4.57;;;1.40;94.40;;;;;;5012476;28;20045;-70
2023/01/22 07:45:20;;;;;;;9.52;5.07;;;1.40;94.40;;;;;;5015401;28;20076;-70
2023/01/22 07:47:53;;;;;;;10.73;4.82;;;1.40;94.40;;;;;;5020186;28;20068;-71
2023/01/22 07:50:24;;;;;;;8.95;4.82;;;1.40;94.40;;;;;;5023864;28;20493;-71
2023/01/22 07:52:49;;;;;;;9.18;4.22;;;1.40;94.50;;;;;;5022861;28;20037;-71
2023/01/22 07:55:15;;;;;;;12.15;4.47;;;1.50;94.40;;;;;;5019556;28;20041;-71
2023/01/22 07:57:41;;;;;;;12.38;5.10;;;1.50;94.50;;;;;;5017666;28;20398;-70
2023/01/22 08:00:09;;;;;;;9.55;4.55;;;1.50;94.40;;;;;;5015525;28;20807;-71
2023/01/22 08:02:36;;;;;;;10.35;4.80;;;1.60;94.50;;;;;;5026512;28;20029;-71
2023/01/22 08:05:02;;;;;;;11.98;5.05;;;1.60;94.50;;;;;;5027428;28;20466;-71
2023/01/22 08:07:29;;;;;;;14.07;5.20;;;1.60;94.50;;;;;;5024603;28;20119;-72
2023/01/22 08:09:55;;;;;;;10.88;5.18;;;1.60;94.50;;;;;;5022602;28;20053;-71
2023/01/22 08:12:20;;;;;;;10.27;5.05;;;1.70;94.50;;;;;;5025426;28;20064;-71
2023/01/22 08:14:46;;;;;;;14.77;4.90;;;1.60;94.50;;;;;;5019894;28;20140;-72
2023/01/22 08:17:11;;;;;;;9.45;4.63;;;1.60;94.50;;;;;;5026507;28;20033;-73
2023/01/22 08:19:37;;;;;;;8.38;4.25;;;1.70;94.50;;;;;;5027613;28;20425;-73
2023/01/22 08:22:03;;;;;;;9.40;4.30;;;1.70;94.60;;;;;;5024256;28;20082;-73
2023/01/22 08:24:28;;;;;;;10.52;4.65;;;1.70;94.50;;;;;;5018904;28;20099;-73
2023/01/22 08:26:55;;;;;;;8.57;4.50;;;1.70;94.40;;;;;;5017834;28;20714;-73
2023/01/22 08:29:20;;;;;;;10.70;4.50;;;1.70;94.50;;;;;;5023018;28;20063;-73
2023/01/22 08:31:46;;;;;;;10.68;4.35;;;1.70;94.40;;;;;;5017320;28;20513;-73
2023/01/22 08:34:11;;;;;;;8.85;4.32;;;1.80;94.40;;;;;;5018227;28;20033;-73
2023/01/22 08:36:37;;;;;;;9.73;4.25;;;1.80;94.40;;;;;;5013639;28;20052;-73
2023/01/22 08:39:03;;;;;;;10.73;4.45;;;1.80;94.30;;;;;;5021202;28;20108;-73
2023/01/22 08:41:29;;;;;;;11.05;4.13;;;1.90;94.30;;;;;;5021095;28;20041;-73
2023/01/22 08:43:54;;;;;;;9.88;4.22;;;1.90;94.40;;;;;;5021111;28;20057;-73
2023/01/22 08:46:20;;;;;;;11.88;4.43;;;1.90;94.40;;;;;;5024790;28;20495;-73
2023/01/22 08:48:47;;;;;;;8.80;5.05;;;1.90;94.40;;;;;;5025060;28;20049;-73
2023/01/22 08:51:13;;;;;;;6.20;3.88;;;1.90;94.30;;;;;;5026643;28;20033;-73
2023/01/22 08:53:38;;;;;;;13.50;4.72;;;1.90;94.20;;;;;;5028375;28;20520;-72
2023/01/22 08:56:04;;;;;;;8.32;4.30;;;1.90;94.30;;;;;;5022180;28;20053;-72
2023/01/22 08:58:30;;;;;;;10.35;4.85;;;2.00;94.30;;;;;;5024178;28;20114;-72
2023/01/22 09:00:55;;;;;;;10.80;4.15;;;2.00;94.30;;;;;;5025879;28;20034;-72
2023/01/22 09:03:21;;;;;;;9.00;4.78;;;2.00;94.40;;;;;;5030156;28;20029;-71
2023/01/22 09:05:47;;;;;;;7.18;4.53;;;2.00;94.40;;;;;;5024894;28;20038;-71
2023/01/22 09:08:13;;;;;;;6.60;3.90;;;2.10;94.40;;;;;;5017971;28;20049;-71
2023/01/22 09:10:39;;;;;;;8.65;3.83;;;2.10;94.10;;;;;;5022029;28;20042;-71
2023/01/22 09:13:04;;;;;;;9.73;4.30;;;2.10;94.20;;;;;;5022176;28;20030;-71
2023/01/22 09:15:30;;;;;;;11.55;3.80;;;2.10;94.30;;;;;;5019709;28;20037;-71
2023/01/22 09:17:56;;;;;;;11.18;4.28;;;2.20;94.20;;;;;;5032001;28;20029;-71
2023/01/22 09:20:21;;;;;;;9.57;4.38;;;2.20;94.20;;;;;;5024272;28;20033;-71
2023/01/22 09:22:47;;;;;;;10.38;4.38;;;2.30;94.20;;;;;;5019760;28;20057;-71
2023/01/22 09:25:14;;;;;;;9.13;4.72;;;2.40;94.00;;;;;;5021731;28;20063;-71
2023/01/22 09:27:39;;;;;;;10.30;4.82;;;2.50;94.00;;;;;;5043755;28;20039;-71
2023/01/22 09:30:05;;;;;;;7.05;4.05;;;2.60;93.80;;;;;;5044364;28;20418;-71
2023/01/22 09:32:31;;;;;;;15.15;3.90;;;2.70;93.60;;;;;;5018089;28;20045;-72
2023/01/22 09:34:56;;;;;;;7.43;3.55;;;2.80;93.50;;;;;;5022952;28;20038;-72
2023/01/22 09:37:22;;;;;;;10.77;4.03;;;2.80;93.40;;;;;;5024212;28;20148;-72
2023/01/22 09:39:48;;;;;;;8.73;3.67;;;2.80;93.40;;;;;;5023139;28;20469;-72
2023/01/22 09:42:20;;;;;;;7.78;3.70;;;2.80;93.20;;;;;;5022937;28;20038;-72
2023/01/22 09:44:50;;;;;;;9.13;3.42;;;2.90;93.10;;;;;;5016345;28;20025;-72
2023/01/22 09:47:20;;;;;;;8.07;3.58;;;2.90;93.10;;;;;;5020391;28;20064;-72
2023/01/22 09:50:05;;;;;;;10.65;3.53;;;2.90;93.20;;;;;;5019250;28;20042;-72
2023/01/22 09:52:33;;;;;;;9.90;3.47;;;2.90;92.90;;;;;;5020479;28;20440;-71
2023/01/22 09:54:58;;;;;;;6.05;3.22;;;2.90;93.00;;;;;;5022468;28;20120;-70
2023/01/22 09:57:24;;;;;;;7.40;3.10;;;2.90;93.00;;;;;;5020433;28;20112;-73
2023/01/22 09:59:54;;;;;;;9.82;3.20;;;2.90;93.00;;;;;;5021939;28;20068;-70
2023/01/22 10:02:32;;;;;;;7.90;2.67;;;2.90;92.90;;;;;;5019202;28;20021;-70
2023/01/22 10:05:37;;;;;;;12.10;2.95;;;3.00;92.80;;;;;;5020867;28;20038;-71
2023/01/22 10:08:15;;;;;;;9.88;2.90;;;3.00;92.80;;;;;;5028121;28;20033;-72
2023/01/22 10:10:41;;;;;;;11.43;3.30;;;3.00;92.90;;;;;;5019913;28;20041;-70
2023/01/22 10:13:15;;;;;;;10.00;2.95;;;3.10;93.00;;;;;;5027857;28;20347;-70
2023/01/22 10:15:41;;;;;;;8.93;2.70;;;3.10;92.90;;;;;;5024954;28;20036;-69
2023/01/22 10:18:19;;;;;;;10.52;3.17;;;3.00;92.80;;;;;;5024269;28;20470;-69
2023/01/22 10:20:45;;;;;;;7.63;3.00;;;3.00;92.80;;;;;;5016125;28;20037;-67
2023/01/22 10:23:17;;;;;;;6.80;3.17;;;3.10;93.00;;;;;;5019264;28;20049;-68
2023/01/22 10:25:43;;;;;;;13.77;2.95;;;3.10;93.10;;;;;;5016099;28;20026;-72
2023/01/22 10:28:09;;;;;;;11.65;3.30;;;3.00;93.20;;;;;;5012117;28;20125;-71
2023/01/22 10:30:48;;;;;;;6.55;3.10;;;3.10;93.00;;;;;;5014346;28;20364;-71
2023/01/22 10:33:21;;;;;;;9.68;3.30;;;3.10;93.10;;;;;;5023574;28;20098;-71
2023/01/22 10:35:49;;;;;;;9.68;2.88;;;3.10;93.00;;;;;;5026974;28;20030;-70
2023/01/22 10:38:24;;;;;;;10.93;3.15;;;3.10;93.10;;;;;;5016574;28;20095;-70
2023/01/22 10:40:58;;;;;;;6.38;2.67;;;3.10;92.80;;;;;;5024217;28;20030;-69
2023/01/22 10:43:37;;;;;;;8.18;2.70;;;3.20;92.90;;;;;;5020852;28;20029;-69
2023/01/22 10:46:03;;;;;;;10.43;2.85;;;3.20;92.70;;;;;;5024082;28;20038;-69
2023/01/22 10:48:30;;;;;;;9.02;2.72;;;3.30;92.60;;;;;;5020487;28;20037;-72
2023/01/22 10:51:14;;;;;;;7.70;2.78;;;3.30;92.50;;;;;;5019472;28;20042;-70
2023/01/22 10:53:55;;;;;;;11.90;2.90;;;3.40;92.50;;;;;;5028491;28;20043;-70
2023/01/22 10:56:26;;;;;;;;;;;3.50;92.50;;;;;;5035721;28;20382;-70
2023/01/22 10:58:52;;;;;;;6.35;2.40;;;3.50;92.40;;;;;;5019121;28;19959;-69
2023/01/22 11:01:26;;;;;;;8.73;2.65;;;3.50;92.10;;;;;;5024014;28;20042;-70
2023/01/22 11:03:51;;;;;;;8.02;2.30;;;3.50;92.10;;;;;;5020417;28;20422;-71
2023/01/22 11:06:40;;;;;;;8.50;3.00;;;3.60;91.80;;;;;;5017068;28;20041;-70
2023/01/22 11:09:17;;;;;;;6.97;2.60;;;3.50;92.00;;;;;;5018917;28;20478;-70
2023/01/22 11:11:52;;;;;;;10.73;3.00;;;3.60;92.00;;;;;;5020302;28;20116;-70
2023/01/22 11:14:23;;;;;;;11.95;3.42;;;3.60;91.80;;;;;;5025879;28;20367;-71
2023/01/22 11:16:51;;;;;;;7.57;2.92;;;3.70;91.90;;;;;;5019629;28;20040;-70
2023/01/22 11:19:19;;;;;;;7.65;2.63;;;3.70;91.70;;;;;;5026201;28;20029;-71
2023/01/22 11:21:52;;;;;;;9.32;3.10;;;3.80;91.50;;;;;;5021424;28;20200;-71
2023/01/22 11:24:22;;;;;;;10.48;2.72;;;3.70;91.70;;;;;;5029376;28;20493;-71
2023/01/22 11:27:13;;;;;;;6.43;2.13;;;3.80;91.60;;;;;;5021738;28;20040;-70
2023/01/22 11:30:02;;;;;;;7.03;2.78;;;3.70;91.70;;;;;;5021142;28;20033;-70
2023/01/22 11:32:45;;;;;;;8.85;2.83;;;3.80;91.90;;;;;;5019887;28;20124;-70
2023/01/22 11:35:20;;;;;;;5.10;2.33;;;3.80;91.70;;;;;;5025691;28;20057;-70
2023/01/22 11:37:57;;;;;;;6.32;2.20;;;3.80;91.70;;;;;;5018469;28;20103;-72
2023/01/22 11:40:27;;;;;;;9.80;2.67;;;3.80;91.90;;;;;;5013857;28;21159;-71
2023/01/22 11:44:00;;;;;;;8.67;2.40;;;3.80;91.70;;;;;;5027261;28;20049;-71
2023/01/22 11:46:33;;;;;;;7.88;2.60;;;3.80;91.70;;;;;;4976046;28;20406;-70
2023/01/22 11:49:28;;;;;;;7.78;2.72;;;3.80;91.90;;;;;;4977182;28;20085;-70
2023/01/22 11:52:25;;;;;;;6.45;2.58;;;3.80;91.60;;;;;;5006541;28;20490;-70
2023/01/22 11:55:19;;;;;;;7.45;2.75;;;3.80;91.70;;;;;;5020483;28;20038;-70
2023/01/22 11:58:15;;;;;;;10.68;2.72;;;3.80;91.50;;;;;;5020073;28;20091;-70
2023/01/22 12:00:49;;;;;;;9.20;2.60;;;3.80;91.70;;;;;;5016867;28;20036;-70
2023/01/22 12:03:45;;;;;;;9.20;2.42;;;3.80;91.60;;;;;;5022940;28;20025;-70
2023/01/22 12:06:37;;;;;;;6.82;2.30;;;3.90;91.50;;;;;;5012956;28;20471;-70
2023/01/22 12:09:29;;;;;;;10.18;3.17;;;3.90;91.40;;;;;;5025026;28;20092;-69
2023/01/22 12:12:31;;;;;;;10.57;2.80;;;3.90;91.40;;;;;;5011976;28;20421;-70
2023/01/22 12:15:09;;;;;;;10.38;2.22;;;4.00;91.30;;;;;;5028458;28;20026;-70
2023/01/22 12:17:48;;;;;;;6.97;3.03;;;4.00;91.30;;;;;;5023755;28;20073;-70
2023/01/22 12:20:42;;;;;;;8.30;2.30;;;4.00;91.40;;;;;;5021774;28;20029;-69
2023/01/22 12:23:17;;;;;;;7.65;2.67;;;4.00;91.30;;;;;;5027066;28;20136;-68
2023/01/22 12:25:45;;;;;;;9.40;2.65;;;4.00;91.20;;;;;;5025491;28;20120;-69
2023/01/22 12:28:27;;;;;;;8.10;2.50;;;4.00;91.30;;;;;;5031326;28;20049;-69
2023/01/22 12:31:05;;;;;;;8.57;2.33;;;4.00;91.30;;;;;;5027100;28;20033;-70
2023/01/22 12:33:37;;;;;;;9.25;2.28;;;3.90;91.30;;;;;;5023047;28;20061;-69
2023/01/22 12:36:06;;;;;;;7.90;2.30;;;4.00;91.30;;;;;;5019910;28;20041;-68
2023/01/22 12:38:50;;;;;;;6.40;2.38;;;3.80;91.10;;;;;;5019284;28;20029;-68
2023/01/22 12:41:35;;;;;;;8.63;2.45;;;3.80;91.50;;;;;;5022972;28;20034;-69
2023/01/22 12:44:10;;;;;;;6.45;2.10;;;3.80;91.50;;;;;;5024168;28;20033;-68
2023/01/22 12:46:44;;;;;;;7.20;2.65;;;3.80;91.40;;;;;;5028904;28;20033;-69
2023/01/22 12:49:15;;;;;;;6.68;2.40;;;3.80;91.60;;;;;;5022947;28;20029;-68
2023/01/22 12:51:44;;;;;;;6.78;2.50;;;3.70;91.70;;;;;;5019591;28;20041;-68
2023/01/22 12:54:26;;;;;;;10.75;2.65;;;3.70;91.70;;;;;;5020851;28;20441;-68
2023/01/22 12:56:56;;;;;;;11.52;2.60;;;3.70;91.80;;;;;;5017145;28;20076;-68
2023/01/22 12:59:28;;;;;;;9.93;2.13;;;3.70;91.70;;;;;;5024108;28;20033;-68
2023/01/22 13:01:58;;;;;;;10.50;2.15;;;3.70;91.80;;;;;;5021815;28;20072;-68
2023/01/22 13:04:28;;;;;;;;;;;3.60;91.70;;;;;;5020319;28;20037;-68
2023/01/22 13:07:04;;;;;;;8.48;2.20;;;3.60;91.80;;;;;;5014760;28;20019;-69
2023/01/22 13:09:35;;;;;;;9.63;2.60;;;3.70;91.80;;;;;;5023535;28;20061;-68
2023/01/22 13:12:09;;;;;;;8.88;2.25;;;3.60;92.00;;;;;;5018105;28;20026;-69